MV Nord Discovery — 3EGP — position and weather

sailwx.info

Track history (hours):
 
Tides and Currents Weather Stations Pressure Air Temp Water Temp Dewpoint Dewpoint Depression Visibility Wind Speed Wind Dir Waves Ship Positions

MV Nord Discovery

Last reported at 2017-Apr-24 23:00 UTC. Time now 2017-Apr-24 23:02 UTC.
Position N 22°35' E 120°18'.

Length 183 m; draft 9 m.

Type: Cargo ship. MMSI: 354855000.

Date/timePositionNaut miles runAvg speedWind from/ knotsBaromVisibWave heightAir tempDewpointWater temp
2017-Apr-24 23:00N 22°35' E 120°18'0 0.0
2017-Apr-24 22:30N 22°35' E 120°18'0 0.0
2017-Apr-24 22:00N 22°35' E 120°18'0 0.0
2017-Apr-24 21:30N 22°35' E 120°18'0 0.0
2017-Apr-24 21:00N 22°35' E 120°18'0 0.0
2017-Apr-24 20:30N 22°35' E 120°18'0 0.0
2017-Apr-24 20:00N 22°35' E 120°18'0 0.0
2017-Apr-24 19:30N 22°35' E 120°18'0 0.0
2017-Apr-24 18:59N 22°35' E 120°18'0 0.0
2017-Apr-24 18:30N 22°35' E 120°18'0 0.0
2017-Apr-24 18:00N 22°35' E 120°18'0 0.0
2017-Apr-24 17:30N 22°35' E 120°18'0 0.0
2017-Apr-24 17:00N 22°35' E 120°18'0 0.0
2017-Apr-24 16:30N 22°35' E 120°18'0 0.0
2017-Apr-24 16:00N 22°35' E 120°18'0 0.0
2017-Apr-24 15:30N 22°35' E 120°18'0 0.0
2017-Apr-24 15:00N 22°35' E 120°18'0 0.0
2017-Apr-24 14:30N 22°35' E 120°18'0 0.0
2017-Apr-24 13:30N 22°35' E 120°18'0 0.0
2017-Apr-24 13:00N 22°35' E 120°18'0 0.0
2017-Apr-24 12:30N 22°35' E 120°18'0 0.0
2017-Apr-24 12:00N 22°35' E 120°18'0 0.0
2017-Apr-24 11:30N 22°35' E 120°18'0 0.0
2017-Apr-24 11:00N 22°35' E 120°18'0 0.0
2017-Apr-24 10:30N 22°35' E 120°18'0 0.0
2017-Apr-24 10:00N 22°35' E 120°18'0 0.0
2017-Apr-24 09:30N 22°35' E 120°18'0 0.0
2017-Apr-24 09:00N 22°35' E 120°18'0 0.0
2017-Apr-24 08:30N 22°35' E 120°18'0 0.0
2017-Apr-24 08:00N 22°35' E 120°18'0 0.0
2017-Apr-24 07:30N 22°35' E 120°18'0 0.0
2017-Apr-24 07:00N 22°35' E 120°18'0 0.0
2017-Apr-24 06:30N 22°35' E 120°18'0 0.0
2017-Apr-24 06:00N 22°35' E 120°18'0 0.0
2017-Apr-24 05:30N 22°35' E 120°18'0 0.0
2017-Apr-24 05:00N 22°35' E 120°18'0 0.0
2017-Apr-24 04:30N 22°35' E 120°18'0 0.0
2017-Apr-24 04:00N 22°35' E 120°18'0 0.0
2017-Apr-24 03:30N 22°35' E 120°18'0 0.0
2017-Apr-24 03:00N 22°35' E 120°18'0 0.0
2017-Apr-24 02:30N 22°35' E 120°18'0 0.0
2017-Apr-24 02:00N 22°35' E 120°18'0 0.0
2017-Apr-24 01:30N 22°35' E 120°18'0 0.0
2017-Apr-24 01:00N 22°35' E 120°18'0 0.0
2017-Apr-24 00:30N 22°35' E 120°18'0 0.0
2017-Apr-24 00:00N 22°35' E 120°18'0 0.0
2017-Apr-23 23:30N 22°35' E 120°18'0 0.7
2017-Apr-23 23:00N 22°36' E 120°17'3 6.8
2017-Apr-23 22:30N 22°37' E 120°14'3 6.5
2017-Apr-23 22:00N 22°38' E 120°11'1 2.5
2017-Apr-23 21:30N 22°38' E 120°09'2 3.5
2017-Apr-23 21:00N 22°36' E 120°10'2 4.2
2017-Apr-23 20:30N 22°34' E 120°11'1 1.3
2017-Apr-23 20:00N 22°35' E 120°10'1 1.2
2017-Apr-23 19:30N 22°35' E 120°10'1 1.3
2017-Apr-23 19:00N 22°36' E 120°10'1 1.3
2017-Apr-23 18:30N 22°36' E 120°09'1 1.9
2017-Apr-23 18:00N 22°37' E 120°09'2 4.2
2017-Apr-23 17:30N 22°39' E 120°09'612.3
2017-Apr-23 17:00N 22°45' E 120°06'713.9
2017-Apr-23 16:30N 22°51' E 120°02'  
2017-Apr-21 11:07N 22°50' E 119°54'111.9
2017-Apr-21 10:59N 22°49' E 119°54'611.8
2017-Apr-21 10:28N 22°43' E 119°54'611.8
2017-Apr-21 09:56N 22°36' E 119°54'512.2
2017-Apr-21 09:30N 22°31' E 119°53'  
Track history (hours):
 
Tides and Currents Weather Stations Pressure Air Temp Water Temp Dewpoint Dewpoint Depression Visibility Wind Speed Wind Dir Waves Ship Positions

MV Nord Discovery

Last reported at 2017-Apr-24 23:00 UTC. Time now 2017-Apr-24 23:02 UTC.
Position N 22°35' E 120°18'.

Length 183 m; draft 9 m.

Type: Cargo ship. MMSI: 354855000.

Date/timePositionNaut miles runAvg speedWind from/ knotsBaromVisibWave heightAir tempDewpointWater temp
2017-Apr-24 23:00N 22°35' E 120°18'0 0.0
2017-Apr-24 22:30N 22°35' E 120°18'0 0.0
2017-Apr-24 22:00N 22°35' E 120°18'0 0.0
2017-Apr-24 21:30N 22°35' E 120°18'0 0.0
2017-Apr-24 21:00N 22°35' E 120°18'0 0.0
2017-Apr-24 20:30N 22°35' E 120°18'0 0.0
2017-Apr-24 20:00N 22°35' E 120°18'0 0.0
2017-Apr-24 19:30N 22°35' E 120°18'0 0.0
2017-Apr-24 18:59N 22°35' E 120°18'0 0.0
2017-Apr-24 18:30N 22°35' E 120°18'0 0.0
2017-Apr-24 18:00N 22°35' E 120°18'0 0.0
2017-Apr-24 17:30N 22°35' E 120°18'0 0.0
2017-Apr-24 17:00N 22°35' E 120°18'0 0.0
2017-Apr-24 16:30N 22°35' E 120°18'0 0.0
2017-Apr-24 16:00N 22°35' E 120°18'0 0.0
2017-Apr-24 15:30N 22°35' E 120°18'0 0.0
2017-Apr-24 15:00N 22°35' E 120°18'0 0.0
2017-Apr-24 14:30N 22°35' E 120°18'0 0.0
2017-Apr-24 13:30N 22°35' E 120°18'0 0.0
2017-Apr-24 13:00N 22°35' E 120°18'0 0.0
2017-Apr-24 12:30N 22°35' E 120°18'0 0.0
2017-Apr-24 12:00N 22°35' E 120°18'0 0.0
2017-Apr-24 11:30N 22°35' E 120°18'0 0.0
2017-Apr-24 11:00N 22°35' E 120°18'0 0.0
2017-Apr-24 10:30N 22°35' E 120°18'0 0.0
2017-Apr-24 10:00N 22°35' E 120°18'0 0.0
2017-Apr-24 09:30N 22°35' E 120°18'0 0.0
2017-Apr-24 09:00N 22°35' E 120°18'0 0.0
2017-Apr-24 08:30N 22°35' E 120°18'0 0.0
2017-Apr-24 08:00N 22°35' E 120°18'0 0.0
2017-Apr-24 07:30N 22°35' E 120°18'0 0.0
2017-Apr-24 07:00N 22°35' E 120°18'0 0.0
2017-Apr-24 06:30N 22°35' E 120°18'0 0.0
2017-Apr-24 06:00N 22°35' E 120°18'0 0.0
2017-Apr-24 05:30N 22°35' E 120°18'0 0.0
2017-Apr-24 05:00N 22°35' E 120°18'0 0.0
2017-Apr-24 04:30N 22°35' E 120°18'0 0.0
2017-Apr-24 04:00N 22°35' E 120°18'0 0.0
2017-Apr-24 03:30N 22°35' E 120°18'0 0.0
2017-Apr-24 03:00N 22°35' E 120°18'0 0.0
2017-Apr-24 02:30N 22°35' E 120°18'0 0.0
2017-Apr-24 02:00N 22°35' E 120°18'0 0.0
2017-Apr-24 01:30N 22°35' E 120°18'0 0.0
2017-Apr-24 01:00N 22°35' E 120°18'0 0.0
2017-Apr-24 00:30N 22°35' E 120°18'0 0.0
2017-Apr-24 00:00N 22°35' E 120°18'0 0.0
2017-Apr-23 23:30N 22°35' E 120°18'0 0.7
2017-Apr-23 23:00N 22°36' E 120°17'3 6.8
2017-Apr-23 22:30N 22°37' E 120°14'3 6.5
2017-Apr-23 22:00N 22°38' E 120°11'1 2.5
2017-Apr-23 21:30N 22°38' E 120°09'2 3.5
2017-Apr-23 21:00N 22°36' E 120°10'2 4.2
2017-Apr-23 20:30N 22°34' E 120°11'1 1.3
2017-Apr-23 20:00N 22°35' E 120°10'1 1.2
2017-Apr-23 19:30N 22°35' E 120°10'1 1.3
2017-Apr-23 19:00N 22°36' E 120°10'1 1.3
2017-Apr-23 18:30N 22°36' E 120°09'1 1.9
2017-Apr-23 18:00N 22°37' E 120°09'2 4.2
2017-Apr-23 17:30N 22°39' E 120°09'612.3
2017-Apr-23 17:00N 22°45' E 120°06'713.9
2017-Apr-23 16:30N 22°51' E 120°02'  
2017-Apr-21 11:07N 22°50' E 119°54'111.9
2017-Apr-21 10:59N 22°49' E 119°54'611.8
2017-Apr-21 10:28N 22°43' E 119°54'611.8
2017-Apr-21 09:56N 22°36' E 119°54'512.2
2017-Apr-21 09:30N 22°31' E 119°53'  

Dump ship's entire track history